KLM941 EHAM-EGPF
Flight info
| Callsign | KLM941 |
|---|---|
| Flight time | 1h 11m |
| Altitude | 34000 |
| Route | BERGI L602 SUPUR P1 GODOS DCT ROXAT DCT BAZNA DCT ANMAZ DCT EWOKE DCT AGPED |
| Aircraft | B739/M-SDE2E3FGIJ1RWY/LB1 |
Departure
| Time | 2026-05-05 13:53 |
|---|---|
| Airport | Amsterdam Airport Schiphol (EHAM) |
Arrival
| Time | 2026-05-05 15:04 |
|---|---|
| Airport | Glasgow Airport (EGPF) |
| Time | Latitude | Longitude | Altitude | Speed | Heading |
|---|---|---|---|---|---|
| 2026-05-05 13:37 | 52.30808 | 4.76709 | -2 ft | 0 kts | 340° |
| 2026-05-05 13:41 | 52.30807 | 4.76709 | -2 ft | 2 kts | 340° |
| 2026-05-05 13:41 | 52.30783 | 4.76723 | -2 ft | 4 kts | 340° |
| 2026-05-05 13:41 | 52.30763 | 4.76735 | -2 ft | 4 kts | 340° |
| 2026-05-05 13:41 | 52.30741 | 4.76747 | -2 ft | 4 kts | 341° |
| 2026-05-05 13:42 | 52.30718 | 4.76752 | -2 ft | 4 kts | 23° |
| 2026-05-05 13:42 | 52.30699 | 4.76736 | -2 ft | 4 kts | 32° |
| 2026-05-05 13:42 | 52.30681 | 4.76728 | -2 ft | 3 kts | 340° |
| 2026-05-05 13:42 | 52.30665 | 4.76742 | -2 ft | 0 kts | 327° |
| 2026-05-05 13:45 | 52.30675 | 4.76736 | -2 ft | 5 kts | 343° |
| 2026-05-05 13:45 | 52.30715 | 4.76773 | -2 ft | 8 kts | 72° |
| 2026-05-05 13:45 | 52.30684 | 4.76845 | -2 ft | 8 kts | 146° |
| 2026-05-05 13:46 | 52.30627 | 4.76866 | -2 ft | 9 kts | 173° |
| 2026-05-05 13:46 | 52.30562 | 4.76912 | -2 ft | 11 kts | 147° |
| 2026-05-05 13:46 | 52.30494 | 4.76970 | -2 ft | 11 kts | 174° |
| 2026-05-05 13:46 | 52.30438 | 4.76894 | -2 ft | 12 kts | 237° |
| 2026-05-05 13:47 | 52.30390 | 4.76770 | -2 ft | 14 kts | 238° |
| 2026-05-05 13:47 | 52.30329 | 4.76609 | -2 ft | 19 kts | 238° |
| 2026-05-05 13:47 | 52.30255 | 4.76419 | -2 ft | 19 kts | 238° |
| 2026-05-05 13:47 | 52.30185 | 4.76234 | -2 ft | 19 kts | 238° |
| 2026-05-05 13:48 | 52.30116 | 4.76055 | -2 ft | 18 kts | 238° |
| 2026-05-05 13:48 | 52.30049 | 4.75882 | -2 ft | 18 kts | 238° |
| 2026-05-05 13:48 | 52.29985 | 4.75713 | -2 ft | 19 kts | 238° |
| 2026-05-05 13:48 | 52.29913 | 4.75527 | -2 ft | 19 kts | 238° |
| 2026-05-05 13:49 | 52.29850 | 4.75361 | -2 ft | 15 kts | 239° |
| 2026-05-05 13:49 | 52.29844 | 4.75200 | -2 ft | 15 kts | 298° |
| 2026-05-05 13:49 | 52.29907 | 4.75073 | -2 ft | 15 kts | 311° |
| 2026-05-05 13:49 | 52.29983 | 4.74933 | -2 ft | 18 kts | 311° |
| 2026-05-05 13:50 | 52.30076 | 4.74761 | 0 ft | 21 kts | 311° |
| 2026-05-05 13:50 | 52.30172 | 4.74584 | 9 ft | 21 kts | 311° |
| 2026-05-05 13:50 | 52.30267 | 4.74408 | 9 ft | 20 kts | 311° |
| 2026-05-05 13:50 | 52.30348 | 4.74255 | -2 ft | 11 kts | 310° |
| 2026-05-05 13:51 | 52.30369 | 4.74140 | -2 ft | 11 kts | 256° |
| 2026-05-05 13:51 | 52.30326 | 4.74042 | -2 ft | 11 kts | 220° |
| 2026-05-05 13:51 | 52.30264 | 4.73968 | -2 ft | 12 kts | 216° |
| 2026-05-05 13:51 | 52.30200 | 4.73881 | -3 ft | 12 kts | 233° |
| 2026-05-05 13:52 | 52.30200 | 4.73762 | -3 ft | 10 kts | 310° |
| 2026-05-05 13:52 | 52.30275 | 4.73744 | -5 ft | 16 kts | 3° |
| 2026-05-05 13:52 | 52.30572 | 4.73772 | -4 ft | 77 kts | 3° |
| 2026-05-05 13:52 | 52.31320 | 4.73840 | -3 ft | 135 kts | 3° |
| 2026-05-05 13:53 | 52.32385 | 4.73950 | 205 ft | 162 kts | 7° |
| 2026-05-05 13:53 | 52.33536 | 4.73957 | 754 ft | 173 kts | 352° |
| 2026-05-05 13:53 | 52.34744 | 4.73338 | 1281 ft | 185 kts | 344° |
| 2026-05-05 13:53 | 52.35962 | 4.72602 | 1817 ft | 194 kts | 343° |
| 2026-05-05 13:54 | 52.37307 | 4.71775 | 2009 ft | 217 kts | 343° |
| 2026-05-05 13:54 | 52.38785 | 4.70887 | 2224 ft | 241 kts | 343° |
| 2026-05-05 13:54 | 52.40372 | 4.69907 | 2832 ft | 250 kts | 338° |
| 2026-05-05 13:54 | 52.41916 | 4.68488 | 3457 ft | 259 kts | 331° |
| 2026-05-05 13:55 | 52.43441 | 4.66917 | 4260 ft | 259 kts | 331° |
| 2026-05-05 13:55 | 52.44980 | 4.65329 | 4993 ft | 263 kts | 330° |
| 2026-05-05 13:55 | 52.46548 | 4.63735 | 5692 ft | 267 kts | 329° |
| 2026-05-05 13:55 | 52.48153 | 4.62123 | 6372 ft | 272 kts | 329° |
| 2026-05-05 13:56 | 52.49782 | 4.60504 | 7051 ft | 275 kts | 329° |
| 2026-05-05 13:56 | 52.51430 | 4.58880 | 7759 ft | 277 kts | 329° |
| 2026-05-05 13:56 | 52.53072 | 4.57269 | 8477 ft | 279 kts | 328° |
| 2026-05-05 13:56 | 52.54759 | 4.55619 | 9174 ft | 282 kts | 328° |
| 2026-05-05 13:57 | 52.56454 | 4.53963 | 9906 ft | 284 kts | 328° |
| 2026-05-05 13:57 | 52.58184 | 4.52274 | 10308 ft | 298 kts | 328° |
| 2026-05-05 13:57 | 52.60011 | 4.50488 | 10471 ft | 318 kts | 328° |
| 2026-05-05 13:57 | 52.61981 | 4.48562 | 10619 ft | 338 kts | 328° |
| 2026-05-05 13:58 | 52.64053 | 4.46536 | 10898 ft | 351 kts | 328° |
| 2026-05-05 13:58 | 52.66176 | 4.44461 | 11497 ft | 354 kts | 328° |
| 2026-05-05 13:58 | 52.68282 | 4.42400 | 12128 ft | 357 kts | 328° |
| 2026-05-05 13:58 | 52.70412 | 4.40313 | 12908 ft | 356 kts | 327° |
| 2026-05-05 13:59 | 52.74502 | 4.35540 | 14066 ft | 363 kts | 313° |
| 2026-05-05 13:59 | 52.76139 | 4.32332 | 14552 ft | 368 kts | 303° |
| 2026-05-05 14:00 | 52.78713 | 4.24927 | 15764 ft | 373 kts | 297° |
| 2026-05-05 14:00 | 52.79539 | 4.22424 | 16189 ft | 375 kts | 297° |
| 2026-05-05 14:00 | 52.81205 | 4.17383 | 17038 ft | 377 kts | 296° |
| 2026-05-05 14:00 | 52.82474 | 4.13565 | 17635 ft | 381 kts | 296° |
| 2026-05-05 14:01 | 52.83768 | 4.09687 | 18137 ft | 387 kts | 296° |
| 2026-05-05 14:01 | 52.85072 | 4.05788 | 18652 ft | 390 kts | 297° |
| 2026-05-05 14:01 | 52.86396 | 4.01836 | 19150 ft | 393 kts | 297° |
| 2026-05-05 14:01 | 52.87730 | 3.97853 | 19669 ft | 396 kts | 297° |
| 2026-05-05 14:02 | 52.89070 | 3.93852 | 20198 ft | 398 kts | 297° |
| 2026-05-05 14:02 | 52.90418 | 3.89816 | 20722 ft | 401 kts | 297° |
| 2026-05-05 14:02 | 52.91772 | 3.85755 | 21206 ft | 404 kts | 296° |
| 2026-05-05 14:02 | 52.93120 | 3.81706 | 21704 ft | 407 kts | 296° |
| 2026-05-05 14:03 | 52.94495 | 3.77572 | 22185 ft | 410 kts | 296° |
| 2026-05-05 14:03 | 52.95874 | 3.73414 | 22805 ft | 410 kts | 296° |
| 2026-05-05 14:03 | 52.97247 | 3.69272 | 23439 ft | 409 kts | 296° |
| 2026-05-05 14:03 | 52.98628 | 3.65097 | 23819 ft | 413 kts | 296° |
| 2026-05-05 14:04 | 53.00048 | 3.60999 | 24175 ft | 418 kts | 302° |
| 2026-05-05 14:04 | 53.02027 | 3.57386 | 24545 ft | 427 kts | 317° |
| 2026-05-05 14:04 | 53.04512 | 3.54621 | 24972 ft | 435 kts | 330° |
| 2026-05-05 14:04 | 53.07355 | 3.52788 | 25401 ft | 439 kts | 338° |
| 2026-05-05 14:05 | 53.10283 | 3.51219 | 25763 ft | 443 kts | 339° |
| 2026-05-05 14:05 | 53.13204 | 3.49662 | 26083 ft | 447 kts | 338° |
| 2026-05-05 14:05 | 53.16169 | 3.48022 | 26427 ft | 449 kts | 337° |
| 2026-05-05 14:05 | 53.19134 | 3.46333 | 26795 ft | 451 kts | 337° |
| 2026-05-05 14:06 | 53.22066 | 3.44443 | 27177 ft | 449 kts | 329° |
| 2026-05-05 14:06 | 53.24659 | 3.41630 | 27599 ft | 442 kts | 316° |
| 2026-05-05 14:06 | 53.26842 | 3.38056 | 27958 ft | 438 kts | 305° |
| 2026-05-05 14:06 | 53.28549 | 3.33948 | 28281 ft | 436 kts | 298° |
| 2026-05-05 14:07 | 53.30161 | 3.29632 | 28601 ft | 439 kts | 298° |
| 2026-05-05 14:07 | 53.31781 | 3.25278 | 28942 ft | 441 kts | 298° |
| 2026-05-05 14:07 | 53.33412 | 3.20941 | 29412 ft | 439 kts | 298° |
| 2026-05-05 14:07 | 53.35046 | 3.16641 | 29994 ft | 436 kts | 298° |
| 2026-05-05 14:08 | 53.36679 | 3.12372 | 30443 ft | 434 kts | 298° |
| 2026-05-05 14:08 | 53.38309 | 3.08111 | 30776 ft | 435 kts | 298° |
| 2026-05-05 14:08 | 53.39948 | 3.03817 | 30998 ft | 438 kts | 299° |
| 2026-05-05 14:08 | 53.41622 | 2.99521 | 31284 ft | 440 kts | 302° |
| 2026-05-05 14:09 | 53.43525 | 2.95486 | 31665 ft | 441 kts | 306° |
| 2026-05-05 14:09 | 53.45525 | 2.91590 | 32057 ft | 440 kts | 308° |
| 2026-05-05 14:09 | 53.47523 | 2.87783 | 32381 ft | 441 kts | 308° |
| 2026-05-05 14:09 | 53.49555 | 2.83911 | 32674 ft | 441 kts | 308° |
| 2026-05-05 14:10 | 53.51580 | 2.80023 | 32995 ft | 441 kts | 308° |
| 2026-05-05 14:10 | 53.53586 | 2.76134 | 33342 ft | 440 kts | 307° |
| 2026-05-05 14:10 | 53.55589 | 2.72219 | 33649 ft | 439 kts | 307° |
| 2026-05-05 14:10 | 53.57555 | 2.68354 | 33932 ft | 440 kts | 307° |
| 2026-05-05 14:11 | 53.61551 | 2.60457 | 33993 ft | 442 kts | 307° |
| 2026-05-05 14:11 | 53.65504 | 2.52619 | 33988 ft | 440 kts | 308° |
| 2026-05-05 14:12 | 53.69464 | 2.44745 | 33994 ft | 439 kts | 308° |
| 2026-05-05 14:12 | 53.73411 | 2.36870 | 33988 ft | 439 kts | 309° |
| 2026-05-05 14:13 | 53.77360 | 2.28969 | 33998 ft | 440 kts | 309° |
| 2026-05-05 14:13 | 53.81323 | 2.21014 | 33997 ft | 442 kts | 309° |
| 2026-05-05 14:14 | 53.85270 | 2.13066 | 33997 ft | 444 kts | 309° |
| 2026-05-05 14:14 | 53.89248 | 2.05028 | 33991 ft | 445 kts | 309° |
| 2026-05-05 14:15 | 53.93234 | 1.96949 | 33995 ft | 446 kts | 309° |
| 2026-05-05 14:15 | 53.97225 | 1.88833 | 33995 ft | 448 kts | 309° |
| 2026-05-05 14:16 | 54.01194 | 1.80732 | 33990 ft | 448 kts | 308° |
| 2026-05-05 14:16 | 54.05176 | 1.72584 | 33988 ft | 447 kts | 308° |
| 2026-05-05 14:17 | 54.09155 | 1.64412 | 33987 ft | 446 kts | 308° |
| 2026-05-05 14:17 | 54.13081 | 1.56322 | 33997 ft | 445 kts | 308° |
| 2026-05-05 14:18 | 54.17021 | 1.48179 | 33992 ft | 443 kts | 308° |
| 2026-05-05 14:18 | 54.20331 | 1.39400 | 34007 ft | 439 kts | 295° |
| 2026-05-05 14:19 | 54.22971 | 1.30042 | 33994 ft | 438 kts | 294° |
| 2026-05-05 14:19 | 54.25600 | 1.20686 | 34002 ft | 437 kts | 294° |
| 2026-05-05 14:20 | 54.28269 | 1.11301 | 33984 ft | 437 kts | 294° |
| 2026-05-05 14:20 | 54.30932 | 1.01955 | 33995 ft | 435 kts | 294° |
| 2026-05-05 14:21 | 54.33562 | 0.92695 | 33996 ft | 434 kts | 294° |
| 2026-05-05 14:21 | 54.36194 | 0.83392 | 34002 ft | 433 kts | 294° |
| 2026-05-05 14:22 | 54.38817 | 0.74082 | 34001 ft | 433 kts | 294° |
| 2026-05-05 14:22 | 54.41431 | 0.64764 | 34003 ft | 432 kts | 294° |
| 2026-05-05 14:23 | 54.44020 | 0.55501 | 34004 ft | 433 kts | 294° |
| 2026-05-05 14:23 | 54.46183 | 0.47731 | 34006 ft | 433 kts | 294° |
| 2026-05-05 14:24 | 54.48783 | 0.38360 | 34010 ft | 433 kts | 294° |
| 2026-05-05 14:24 | 54.51374 | 0.28981 | 34020 ft | 433 kts | 293° |
| 2026-05-05 14:25 | 54.53938 | 0.19667 | 34014 ft | 432 kts | 293° |
| 2026-05-05 14:25 | 54.56522 | 0.10326 | 34013 ft | 431 kts | 294° |
| 2026-05-05 14:26 | 54.59266 | 0.01165 | 34011 ft | 429 kts | 295° |
| 2026-05-05 14:26 | 54.62036 | -0.07948 | 34017 ft | 428 kts | 295° |
| 2026-05-05 14:27 | 54.64774 | -0.17069 | 34017 ft | 426 kts | 295° |
| 2026-05-05 14:27 | 54.67467 | -0.26133 | 34019 ft | 426 kts | 295° |
| 2026-05-05 14:28 | 54.70156 | -0.35234 | 34021 ft | 426 kts | 295° |
| 2026-05-05 14:28 | 54.72848 | -0.44384 | 34024 ft | 426 kts | 294° |
| 2026-05-05 14:29 | 54.75522 | -0.53506 | 34048 ft | 427 kts | 294° |
| 2026-05-05 14:29 | 54.78205 | -0.62692 | 34025 ft | 427 kts | 294° |
| 2026-05-05 14:30 | 54.80883 | -0.71897 | 34035 ft | 426 kts | 294° |
| 2026-05-05 14:30 | 54.83554 | -0.81113 | 34036 ft | 426 kts | 294° |
| 2026-05-05 14:31 | 54.86196 | -0.90267 | 34041 ft | 425 kts | 294° |
| 2026-05-05 14:31 | 54.88825 | -0.99411 | 34037 ft | 425 kts | 294° |
| 2026-05-05 14:32 | 54.91466 | -1.08636 | 33694 ft | 428 kts | 294° |
| 2026-05-05 14:32 | 54.92789 | -1.13267 | 33434 ft | 425 kts | 294° |
| 2026-05-05 14:32 | 54.94099 | -1.17860 | 33162 ft | 422 kts | 293° |
| 2026-05-05 14:33 | 54.95398 | -1.22425 | 32889 ft | 420 kts | 293° |
| 2026-05-05 14:33 | 54.96603 | -1.27039 | 32625 ft | 416 kts | 290° |
| 2026-05-05 14:33 | 54.97701 | -1.31671 | 32381 ft | 414 kts | 289° |
| 2026-05-05 14:33 | 54.98768 | -1.36325 | 32114 ft | 412 kts | 289° |
| 2026-05-05 14:34 | 54.99823 | -1.40960 | 31859 ft | 411 kts | 289° |
| 2026-05-05 14:34 | 55.00868 | -1.45526 | 31635 ft | 408 kts | 289° |
| 2026-05-05 14:34 | 55.01919 | -1.50100 | 31161 ft | 403 kts | 289° |
| 2026-05-05 14:34 | 55.02959 | -1.54602 | 30708 ft | 398 kts | 289° |
| 2026-05-05 14:35 | 55.03988 | -1.59058 | 30205 ft | 394 kts | 289° |
| 2026-05-05 14:35 | 55.05012 | -1.63491 | 29652 ft | 390 kts | 289° |
| 2026-05-05 14:35 | 55.06016 | -1.67850 | 29157 ft | 385 kts | 289° |
| 2026-05-05 14:35 | 55.06996 | -1.72110 | 28670 ft | 380 kts | 289° |
| 2026-05-05 14:36 | 55.07976 | -1.76381 | 28181 ft | 376 kts | 289° |
| 2026-05-05 14:36 | 55.08943 | -1.80606 | 27696 ft | 372 kts | 289° |
| 2026-05-05 14:36 | 55.09901 | -1.84794 | 27200 ft | 369 kts | 289° |
| 2026-05-05 14:36 | 55.10847 | -1.88942 | 26693 ft | 366 kts | 289° |
| 2026-05-05 14:37 | 55.11785 | -1.93061 | 26220 ft | 364 kts | 289° |
| 2026-05-05 14:37 | 55.12784 | -1.97061 | 25810 ft | 361 kts | 294° |
| 2026-05-05 14:37 | 55.13998 | -2.00925 | 25460 ft | 363 kts | 297° |
| 2026-05-05 14:37 | 55.15298 | -2.04767 | 25104 ft | 370 kts | 298° |
| 2026-05-05 14:38 | 55.16630 | -2.08656 | 24725 ft | 373 kts | 298° |
| 2026-05-05 14:38 | 55.17941 | -2.12509 | 24345 ft | 371 kts | 297° |
| 2026-05-05 14:38 | 55.19249 | -2.16399 | 23961 ft | 369 kts | 297° |
| 2026-05-05 14:38 | 55.20535 | -2.20267 | 23579 ft | 366 kts | 297° |
| 2026-05-05 14:39 | 55.21806 | -2.24119 | 23140 ft | 364 kts | 297° |
| 2026-05-05 14:39 | 55.23062 | -2.27950 | 22746 ft | 361 kts | 297° |
| 2026-05-05 14:39 | 55.24307 | -2.31761 | 22381 ft | 358 kts | 297° |
| 2026-05-05 14:39 | 55.25536 | -2.35533 | 22028 ft | 355 kts | 297° |
| 2026-05-05 14:40 | 55.26759 | -2.39296 | 21653 ft | 353 kts | 297° |
| 2026-05-05 14:40 | 55.27969 | -2.43025 | 21296 ft | 351 kts | 297° |
| 2026-05-05 14:40 | 55.29158 | -2.46693 | 20929 ft | 349 kts | 297° |
| 2026-05-05 14:40 | 55.30354 | -2.50391 | 20595 ft | 347 kts | 297° |
| 2026-05-05 14:41 | 55.31543 | -2.54072 | 20242 ft | 345 kts | 297° |
| 2026-05-05 14:41 | 55.32723 | -2.57729 | 19894 ft | 344 kts | 297° |
| 2026-05-05 14:41 | 55.33900 | -2.61384 | 19550 ft | 342 kts | 297° |
| 2026-05-05 14:41 | 55.35075 | -2.65036 | 19209 ft | 341 kts | 297° |
| 2026-05-05 14:42 | 55.36239 | -2.68662 | 18860 ft | 340 kts | 297° |
| 2026-05-05 14:42 | 55.37384 | -2.72232 | 18525 ft | 339 kts | 297° |
| 2026-05-05 14:42 | 55.38539 | -2.75840 | 18166 ft | 338 kts | 297° |
| 2026-05-05 14:42 | 55.39689 | -2.79437 | 17769 ft | 336 kts | 297° |
| 2026-05-05 14:43 | 55.40828 | -2.83005 | 17423 ft | 332 kts | 297° |
| 2026-05-05 14:43 | 55.41952 | -2.86531 | 17075 ft | 328 kts | 297° |
| 2026-05-05 14:43 | 55.43065 | -2.90025 | 16734 ft | 323 kts | 297° |
| 2026-05-05 14:43 | 55.44155 | -2.93454 | 16416 ft | 318 kts | 297° |
| 2026-05-05 14:44 | 55.45226 | -2.96826 | 16104 ft | 313 kts | 297° |
| 2026-05-05 14:44 | 55.46193 | -3.00219 | 15769 ft | 306 kts | 287° |
| 2026-05-05 14:44 | 55.46639 | -3.03791 | 15495 ft | 300 kts | 280° |
| 2026-05-05 14:44 | 55.47000 | -3.07392 | 15188 ft | 296 kts | 280° |
| 2026-05-05 14:45 | 55.47357 | -3.10931 | 14885 ft | 291 kts | 280° |
| 2026-05-05 14:45 | 55.47716 | -3.14424 | 14592 ft | 289 kts | 280° |
| 2026-05-05 14:45 | 55.48079 | -3.17905 | 14291 ft | 289 kts | 281° |
| 2026-05-05 14:45 | 55.48446 | -3.21391 | 14030 ft | 288 kts | 281° |
| 2026-05-05 14:46 | 55.48815 | -3.24868 | 13727 ft | 287 kts | 281° |
| 2026-05-05 14:46 | 55.49179 | -3.28311 | 13384 ft | 284 kts | 281° |
| 2026-05-05 14:46 | 55.49537 | -3.31712 | 13072 ft | 279 kts | 281° |
| 2026-05-05 14:46 | 55.49929 | -3.35038 | 12755 ft | 275 kts | 288° |
| 2026-05-05 14:47 | 55.50783 | -3.37991 | 12541 ft | 272 kts | 300° |
| 2026-05-05 14:47 | 55.51782 | -3.40838 | 12224 ft | 272 kts | 301° |
| 2026-05-05 14:47 | 55.52781 | -3.43669 | 11949 ft | 271 kts | 301° |
| 2026-05-05 14:47 | 55.53774 | -3.46500 | 11671 ft | 270 kts | 301° |
| 2026-05-05 14:48 | 55.54749 | -3.49289 | 11405 ft | 269 kts | 301° |
| 2026-05-05 14:48 | 55.55728 | -3.52105 | 11143 ft | 267 kts | 301° |
| 2026-05-05 14:48 | 55.56702 | -3.54914 | 10855 ft | 267 kts | 301° |
| 2026-05-05 14:48 | 55.57671 | -3.57717 | 10590 ft | 266 kts | 301° |
| 2026-05-05 14:49 | 55.58623 | -3.60478 | 10308 ft | 265 kts | 301° |
| 2026-05-05 14:49 | 55.59578 | -3.63253 | 10031 ft | 261 kts | 301° |
| 2026-05-05 14:49 | 55.60514 | -3.65980 | 9764 ft | 256 kts | 300° |
| 2026-05-05 14:49 | 55.61436 | -3.68665 | 9476 ft | 254 kts | 301° |
| 2026-05-05 14:50 | 55.62353 | -3.71339 | 9204 ft | 253 kts | 301° |
| 2026-05-05 14:50 | 55.63269 | -3.74016 | 8958 ft | 254 kts | 301° |
| 2026-05-05 14:50 | 55.64176 | -3.76669 | 8701 ft | 255 kts | 301° |
| 2026-05-05 14:50 | 55.65096 | -3.79364 | 8439 ft | 256 kts | 301° |
| 2026-05-05 14:51 | 55.66019 | -3.82069 | 8173 ft | 257 kts | 301° |
| 2026-05-05 14:51 | 55.66949 | -3.84796 | 7913 ft | 258 kts | 301° |
| 2026-05-05 14:51 | 55.67878 | -3.87527 | 7649 ft | 258 kts | 301° |
| 2026-05-05 14:51 | 55.68799 | -3.90237 | 7384 ft | 255 kts | 301° |
| 2026-05-05 14:52 | 55.69702 | -3.92895 | 7126 ft | 253 kts | 301° |
| 2026-05-05 14:52 | 55.70590 | -3.95558 | 6929 ft | 248 kts | 296° |
| 2026-05-05 14:52 | 55.70963 | -3.98496 | 6697 ft | 245 kts | 267° |
| 2026-05-05 14:52 | 55.70705 | -4.01475 | 6468 ft | 247 kts | 260° |
| 2026-05-05 14:53 | 55.70363 | -4.04496 | 6186 ft | 251 kts | 259° |
| 2026-05-05 14:53 | 55.70011 | -4.07516 | 5936 ft | 254 kts | 259° |
| 2026-05-05 14:53 | 55.69646 | -4.10590 | 5672 ft | 255 kts | 259° |
| 2026-05-05 14:53 | 55.69280 | -4.13672 | 5409 ft | 253 kts | 259° |
| 2026-05-05 14:54 | 55.68918 | -4.16719 | 5147 ft | 252 kts | 259° |
| 2026-05-05 14:54 | 55.68557 | -4.19757 | 4890 ft | 252 kts | 259° |
| 2026-05-05 14:54 | 55.68199 | -4.22793 | 4628 ft | 252 kts | 259° |
| 2026-05-05 14:54 | 55.67843 | -4.25825 | 4376 ft | 251 kts | 259° |
| 2026-05-05 14:55 | 55.67494 | -4.28843 | 4193 ft | 250 kts | 259° |
| 2026-05-05 14:55 | 55.67149 | -4.31840 | 4027 ft | 254 kts | 259° |
| 2026-05-05 14:55 | 55.66792 | -4.34931 | 3881 ft | 258 kts | 259° |
| 2026-05-05 14:55 | 55.66429 | -4.38062 | 3741 ft | 260 kts | 259° |
| 2026-05-05 14:56 | 55.66068 | -4.41178 | 3650 ft | 253 kts | 258° |
| 2026-05-05 14:56 | 55.65729 | -4.44155 | 3503 ft | 239 kts | 258° |
| 2026-05-05 14:56 | 55.65407 | -4.46980 | 3387 ft | 230 kts | 258° |
| 2026-05-05 14:56 | 55.65097 | -4.49667 | 3292 ft | 215 kts | 259° |
| 2026-05-05 14:57 | 55.64777 | -4.52217 | 3211 ft | 209 kts | 259° |
| 2026-05-05 14:57 | 55.64680 | -4.54715 | 3098 ft | 205 kts | 286° |
| 2026-05-05 14:57 | 55.65375 | -4.56840 | 3026 ft | 201 kts | 318° |
| 2026-05-05 14:57 | 55.66411 | -4.58528 | 2987 ft | 203 kts | 319° |
| 2026-05-05 14:58 | 55.67444 | -4.60242 | 2895 ft | 203 kts | 319° |
| 2026-05-05 14:58 | 55.68452 | -4.61909 | 2827 ft | 192 kts | 319° |
| 2026-05-05 14:58 | 55.69400 | -4.63481 | 2741 ft | 182 kts | 318° |
| 2026-05-05 14:58 | 55.70321 | -4.65010 | 2658 ft | 183 kts | 320° |
| 2026-05-05 14:59 | 55.71250 | -4.66611 | 2595 ft | 188 kts | 319° |
| 2026-05-05 14:59 | 55.72209 | -4.68219 | 2487 ft | 189 kts | 328° |
| 2026-05-05 14:59 | 55.73391 | -4.68737 | 2382 ft | 174 kts | 17° |
| 2026-05-05 14:59 | 55.74327 | -4.67523 | 2410 ft | 172 kts | 50° |
| 2026-05-05 15:00 | 55.75149 | -4.65919 | 2385 ft | 177 kts | 47° |
| 2026-05-05 15:00 | 55.75712 | -4.64866 | 2389 ft | 176 kts | 47° |
| 2026-05-05 15:00 | 55.76805 | -4.62812 | 2387 ft | 169 kts | 47° |
| 2026-05-05 15:00 | 55.77624 | -4.61283 | 2404 ft | 170 kts | 47° |
| 2026-05-05 15:01 | 55.78413 | -4.59802 | 2334 ft | 159 kts | 48° |
| 2026-05-05 15:01 | 55.79179 | -4.58357 | 2152 ft | 159 kts | 47° |
| 2026-05-05 15:01 | 55.79934 | -4.56938 | 1948 ft | 159 kts | 47° |
| 2026-05-05 15:01 | 55.80693 | -4.55510 | 1735 ft | 159 kts | 47° |
| 2026-05-05 15:02 | 55.81446 | -4.54098 | 1504 ft | 156 kts | 47° |
| 2026-05-05 15:02 | 55.82192 | -4.52697 | 1303 ft | 155 kts | 47° |
| 2026-05-05 15:02 | 55.82928 | -4.51317 | 1075 ft | 154 kts | 49° |
| 2026-05-05 15:02 | 55.83649 | -4.49964 | 855 ft | 151 kts | 49° |
| 2026-05-05 15:03 | 55.84356 | -4.48640 | 649 ft | 143 kts | 49° |
| 2026-05-05 15:03 | 55.85030 | -4.47377 | 457 ft | 139 kts | 49° |
| 2026-05-05 15:03 | 55.85685 | -4.46155 | 270 ft | 134 kts | 49° |
| 2026-05-05 15:03 | 55.86322 | -4.44967 | 93 ft | 132 kts | 49° |
| 2026-05-05 15:04 | 55.86934 | -4.43819 | 28 ft | 110 kts | 47° |
| 2026-05-05 15:04 | 55.87323 | -4.43090 | 28 ft | 62 kts | 46° |
| 2026-05-05 15:04 | 55.87596 | -4.42579 | 28 ft | 52 kts | 46° |
| 2026-05-05 15:04 | 55.87746 | -4.42295 | 28 ft | 12 kts | 62° |
| 2026-05-05 15:05 | 55.87638 | -4.42160 | 28 ft | 11 kts | 197° |
| 2026-05-05 15:05 | 55.87576 | -4.42242 | 28 ft | 11 kts | 224° |
| 2026-05-05 15:05 | 55.87525 | -4.42339 | 28 ft | 11 kts | 226° |
| 2026-05-05 15:06 | 55.87469 | -4.42443 | 28 ft | 13 kts | 226° |
| 2026-05-05 15:06 | 55.87398 | -4.42573 | 28 ft | 17 kts | 219° |
| 2026-05-05 15:06 | 55.87287 | -4.42658 | 28 ft | 17 kts | 199° |
| 2026-05-05 15:06 | 55.87176 | -4.42735 | 28 ft | 17 kts | 202° |
| 2026-05-05 15:07 | 55.87068 | -4.42806 | 28 ft | 16 kts | 199° |
| 2026-05-05 15:07 | 55.86966 | -4.42879 | 28 ft | 15 kts | 206° |
| 2026-05-05 15:07 | 55.86903 | -4.42935 | 28 ft | 15 kts | 207° |
| 2026-05-05 15:07 | 55.86832 | -4.43127 | 28 ft | 14 kts | 253° |
| 2026-05-05 15:08 | 55.86806 | -4.43293 | 28 ft | 14 kts | 253° |
| 2026-05-05 15:08 | 55.86780 | -4.43451 | 28 ft | 13 kts | 253° |
| 2026-05-05 15:08 | 55.86764 | -4.43551 | 28 ft | 9 kts | 254° |
| 2026-05-05 15:08 | 55.86720 | -4.43614 | 28 ft | 9 kts | 183° |
| 2026-05-05 15:09 | 55.86658 | -4.43587 | 28 ft | 9 kts | 163° |
| 2026-05-05 15:09 | 55.86598 | -4.43586 | 28 ft | 9 kts | 224° |
| 2026-05-05 15:09 | 55.86576 | -4.43684 | 28 ft | 6 kts | 253° |
| 2026-05-05 15:09 | 55.86571 | -4.43711 | 28 ft | 0 kts | 254° |
| 2026-05-05 15:55 | 55.86573 | -4.43703 | 28 ft | 4 kts | 255° |
| 2026-05-05 15:55 | 55.86578 | -4.43656 | 28 ft | 4 kts | 268° |
| 2026-05-05 15:55 | 55.86576 | -4.43609 | 28 ft | 4 kts | 283° |
| 2026-05-05 15:56 | 55.86567 | -4.43564 | 28 ft | 4 kts | 303° |
| 2026-05-05 15:56 | 55.86549 | -4.43532 | 28 ft | 4 kts | 338° |
| 2026-05-05 15:56 | 55.86545 | -4.43529 | 28 ft | 0 kts | 344° |
| 2026-05-05 15:58 | 55.86546 | -4.43529 | 28 ft | 1 kts | 344° |